createdAt,value
2022-12-16T00:01:24.533Z,99656.47
2022-12-16T00:03:52.577Z,99661.50
2022-12-16T00:06:22.912Z,99662.94
2022-12-16T00:08:50.235Z,99650.91
2022-12-16T00:11:19.688Z,99642.25
2022-12-16T00:13:47.957Z,99646.56
2022-12-16T00:16:16.553Z,99644.53
2022-12-16T00:18:45.933Z,99643.84
2022-12-16T00:21:13.728Z,99641.34
2022-12-16T00:23:41.959Z,99645.38
2022-12-16T00:26:09.527Z,99641.91
2022-12-16T00:28:36.967Z,99641.13
2022-12-16T00:31:04.483Z,99650.19
2022-12-16T00:33:33.305Z,99643.38
2022-12-16T00:36:02.268Z,99645.53
2022-12-16T00:38:29.732Z,99650.34
2022-12-16T00:40:57.035Z,99646.00
2022-12-16T00:43:24.361Z,99647.59
2022-12-16T00:45:52.177Z,99643.19
2022-12-16T00:48:22.932Z,99650.22
2022-12-16T00:50:50.903Z,99646.13
2022-12-16T00:53:20.688Z,99646.44
2022-12-16T00:55:48.221Z,99641.19
2022-12-16T00:58:15.847Z,99643.75
2022-12-16T01:00:43.217Z,99641.81
2022-12-16T01:03:10.823Z,99648.69
2022-12-16T01:05:39.826Z,99643.28
2022-12-16T01:08:07.168Z,99642.91
2022-12-16T01:10:35.806Z,99648.88
2022-12-16T01:13:03.153Z,99645.75
2022-12-16T01:15:30.455Z,99650.16
2022-12-16T01:17:57.765Z,99657.59
2022-12-16T01:20:25.133Z,99660.59
2022-12-16T01:22:52.425Z,99657.25
2022-12-16T01:25:19.744Z,99651.88
2022-12-16T01:27:48.528Z,99646.50
2022-12-16T01:30:15.895Z,99644.69
2022-12-16T01:32:43.197Z,99648.84
2022-12-16T01:35:36.430Z,99637.75
2022-12-16T01:37:58.266Z,99645.47
2022-12-16T01:40:25.763Z,99635.41
2022-12-16T01:42:54.396Z,99637.81
2022-12-16T01:45:28.949Z,99636.97
2022-12-16T01:47:57.491Z,99647.31
2022-12-16T01:50:24.994Z,99644.59
2022-12-16T01:52:54.858Z,99653.97
2022-12-16T01:55:25.536Z,99651.47
2022-12-16T01:57:56.805Z,99645.19
2022-12-16T02:00:24.195Z,99639.09
2022-12-16T02:02:52.339Z,99625.88
2022-12-16T02:05:22.920Z,99622.50
2022-12-16T02:07:55.970Z,99622.38
2022-12-16T02:10:27.026Z,99626.97
2022-12-16T02:12:57.180Z,99615.38
2022-12-16T02:15:32.567Z,99615.38
2022-12-16T02:18:06.086Z,99617.69
2022-12-16T02:20:52.371Z,99616.19
2022-12-16T02:23:44.050Z,99613.00
2022-12-16T02:26:28.071Z,99604.06
2022-12-16T02:29:09.009Z,99606.56
2022-12-16T02:31:41.929Z,99615.03
2022-12-16T02:34:11.514Z,99598.56
2022-12-16T02:36:43.980Z,99596.78
2022-12-16T02:39:15.368Z,99598.19
2022-12-16T02:41:44.706Z,99585.88
2022-12-16T02:44:12.703Z,99596.81
2022-12-16T02:46:42.551Z,99596.28
2022-12-16T02:49:30.055Z,99591.00
2022-12-16T02:51:58.860Z,99585.75
2022-12-16T02:54:27.849Z,99585.66
2022-12-16T02:56:57.748Z,99588.41
2022-12-16T02:59:29.067Z,99583.38
2022-12-16T03:02:01.673Z,99587.00
2022-12-16T03:04:35.738Z,99579.00
2022-12-16T03:07:05.214Z,99579.81
2022-12-16T03:09:34.572Z,99573.84
2022-12-16T03:12:04.962Z,99578.75
2022-12-16T03:14:34.718Z,99570.69
2022-12-16T03:17:04.198Z,99566.94
2022-12-16T03:19:32.369Z,99576.59
2022-12-16T03:22:02.370Z,99572.75
2022-12-16T03:24:30.666Z,99564.63
2022-12-16T03:27:04.386Z,99566.91
2022-12-16T03:29:37.726Z,99563.72
2022-12-16T03:32:10.748Z,99566.00
2022-12-16T03:34:42.369Z,99570.41
2022-12-16T03:37:10.561Z,99568.78
2022-12-16T03:39:41.048Z,99568.00
2022-12-16T03:42:09.209Z,99570.72
2022-12-16T03:44:37.250Z,99572.31
2022-12-16T03:47:05.936Z,99572.66
2022-12-16T03:49:33.287Z,99571.09
2022-12-16T03:52:00.841Z,99574.28
2022-12-16T03:54:28.168Z,99578.16
2022-12-16T03:56:55.510Z,99581.03
2022-12-16T03:59:22.967Z,99573.88
2022-12-16T04:01:50.520Z,99577.66
2022-12-16T04:04:19.460Z,99591.41
2022-12-16T04:07:06.767Z,99588.03
2022-12-16T04:09:34.144Z,99585.09
2022-12-16T04:12:19.260Z,99584.13
2022-12-16T04:15:03.957Z,99586.59
2022-12-16T04:17:48.680Z,99599.63
2022-12-16T04:20:35.598Z,99596.31
2022-12-16T04:23:20.795Z,99600.69
2022-12-16T04:25:48.313Z,99595.31
2022-12-16T04:28:15.654Z,99602.34
2022-12-16T04:30:43.047Z,99596.75
2022-12-16T04:33:29.264Z,99601.00
2022-12-16T04:36:15.567Z,99605.56
2022-12-16T04:39:00.128Z,99607.00
2022-12-16T04:41:47.080Z,99606.88
2022-12-16T04:44:32.619Z,99610.06
2022-12-16T04:47:19.385Z,99614.25
2022-12-16T04:50:04.207Z,99609.13
2022-12-16T04:52:50.738Z,99618.09
2022-12-16T04:55:35.420Z,99613.72
2022-12-16T04:58:21.014Z,99618.94
2022-12-16T05:01:06.339Z,99626.91
2022-12-16T05:03:51.764Z,99622.19
2022-12-16T05:06:37.519Z,99628.78
2022-12-16T05:09:24.110Z,99633.84
2022-12-16T05:12:09.351Z,99641.91
2022-12-16T05:14:54.027Z,99648.88
2022-12-16T05:17:39.555Z,99654.22
2022-12-16T05:20:24.804Z,99645.25
2022-12-16T05:23:10.059Z,99656.72
2022-12-16T05:25:58.516Z,99654.78
2022-12-16T05:28:43.379Z,99658.34
2022-12-16T05:31:28.389Z,99647.16
2022-12-16T05:34:13.383Z,99646.50
2022-12-16T05:36:58.227Z,99653.97
2022-12-16T05:39:42.951Z,99650.81
2022-12-16T05:42:28.845Z,99636.97
2022-12-16T05:45:13.774Z,99642.31
2022-12-16T05:47:58.894Z,99637.28
2022-12-16T05:50:42.946Z,99649.47
2022-12-16T05:53:28.136Z,99650.31
2022-12-16T05:56:13.040Z,99646.50
2022-12-16T05:58:59.133Z,99655.47
2022-12-16T06:01:43.943Z,99666.53
2022-12-16T06:04:29.149Z,99667.59
2022-12-16T06:07:13.842Z,99666.31
2022-12-16T06:09:58.665Z,99668.19
2022-12-16T06:12:43.440Z,99676.38
2022-12-16T06:15:29.733Z,99675.56
2022-12-16T06:18:15.281Z,99678.66
2022-12-16T06:21:00.049Z,99677.72
2022-12-16T06:23:44.838Z,99689.63
2022-12-16T06:26:29.426Z,99678.88
2022-12-16T06:29:14.266Z,99675.28
2022-12-16T06:32:00.180Z,99685.78
2022-12-16T06:34:45.252Z,99691.19
2022-12-16T06:37:29.988Z,99694.56
2022-12-16T06:40:15.745Z,99708.69
2022-12-16T06:43:00.603Z,99706.38
2022-12-16T06:45:45.552Z,99714.28
2022-12-16T06:48:31.951Z,99716.41
2022-12-16T06:51:16.754Z,99718.09
2022-12-16T06:54:01.675Z,99723.50
2022-12-16T06:56:46.471Z,99734.38
2022-12-16T06:59:31.257Z,99742.38
2022-12-16T07:02:17.639Z,99735.56
2022-12-16T07:05:03.883Z,99739.63
2022-12-16T07:07:48.744Z,99747.50
2022-12-16T07:10:33.630Z,99754.38
2022-12-16T07:13:18.801Z,99761.19
2022-12-16T07:16:03.597Z,99760.47
2022-12-16T07:18:48.638Z,99762.41
2022-12-16T07:21:34.629Z,99766.69
2022-12-16T07:24:19.360Z,99771.75
2022-12-16T07:27:04.161Z,99783.00
2022-12-16T07:29:48.766Z,99774.53
2022-12-16T07:32:33.640Z,99786.00
2022-12-16T07:35:18.499Z,99794.34
2022-12-16T07:38:01.156Z,99798.41
2022-12-16T07:40:46.026Z,99798.31
2022-12-16T07:43:30.962Z,99798.34
2022-12-16T07:46:16.356Z,99802.47
2022-12-16T07:49:01.482Z,99803.34
2022-12-16T07:51:46.456Z,99811.06
2022-12-16T07:54:32.438Z,99809.25
2022-12-16T07:57:20.343Z,99808.19
2022-12-16T08:00:05.156Z,99802.66
2022-12-16T08:02:49.416Z,99807.22
2022-12-16T08:05:34.332Z,99815.00
2022-12-16T08:08:20.245Z,99814.16
2022-12-16T08:11:08.277Z,99816.56
2022-12-16T08:13:53.594Z,99814.84
2022-12-16T08:16:38.262Z,99812.84
2022-12-16T08:19:23.324Z,99819.06
2022-12-16T08:22:08.046Z,99828.38
2022-12-16T08:24:56.134Z,99824.28
2022-12-16T08:27:42.399Z,99838.88
2022-12-16T08:30:27.763Z,99837.81
2022-12-16T08:33:18.739Z,99837.94
2022-12-16T08:36:04.603Z,99843.97
2022-12-16T08:38:49.458Z,99846.03
2022-12-16T08:41:34.498Z,99839.69
2022-12-16T08:44:22.730Z,99843.03
2022-12-16T08:47:07.591Z,99844.84
2022-12-16T08:49:57.710Z,99847.34
2022-12-16T08:52:46.544Z,99854.97
2022-12-16T08:55:31.513Z,99856.41
2022-12-16T08:58:16.194Z,99862.41
2022-12-16T09:01:07.068Z,99864.06
2022-12-16T09:03:53.042Z,99867.25
2022-12-16T09:06:40.759Z,99879.34
2022-12-16T09:09:26.006Z,99875.22
2022-12-16T09:12:10.804Z,99872.13
2022-12-16T09:14:56.075Z,99873.81
2022-12-16T09:17:42.519Z,99883.78
2022-12-16T09:20:27.665Z,99887.06
2022-12-16T09:23:12.477Z,99884.66
2022-12-16T09:25:57.203Z,99885.25
2022-12-16T09:28:42.366Z,99889.56
2022-12-16T09:31:27.440Z,99898.28
2022-12-16T09:34:13.772Z,99897.25
2022-12-16T09:36:58.715Z,99907.25
2022-12-16T09:39:43.380Z,99901.91
2022-12-16T09:42:38.257Z,99907.94
2022-12-16T09:45:30.025Z,99913.94
2022-12-16T09:48:20.323Z,99915.38
2022-12-16T09:51:06.837Z,99919.03
2022-12-16T09:53:55.316Z,99920.81
2022-12-16T09:56:44.003Z,99924.22
2022-12-16T09:59:31.334Z,99932.28
2022-12-16T10:02:16.423Z,99928.66
2022-12-16T10:05:02.323Z,99927.84
2022-12-16T10:07:49.808Z,99911.78
2022-12-16T10:10:39.335Z,99924.28
2022-12-16T10:13:28.230Z,99930.31
2022-12-16T10:16:18.632Z,99926.44
2022-12-16T10:19:09.307Z,99920.94
2022-12-16T10:21:59.640Z,99923.59
2022-12-16T10:24:52.206Z,99920.50
2022-12-16T10:27:40.369Z,99931.22
2022-12-16T10:30:30.579Z,99937.53
2022-12-16T10:33:15.931Z,99936.31
2022-12-16T10:36:02.845Z,99936.31
2022-12-16T10:38:54.985Z,99934.50
2022-12-16T10:41:43.320Z,99927.13
2022-12-16T10:44:34.599Z,99938.41
2022-12-16T10:47:19.405Z,99945.22
2022-12-16T10:50:04.169Z,99940.44
2022-12-16T10:52:49.747Z,99946.66
2022-12-16T10:55:41.019Z,99938.09
2022-12-16T10:58:39.047Z,99941.50
2022-12-16T11:01:38.591Z,99936.69
2022-12-16T11:04:46.162Z,99944.34
2022-12-16T11:07:41.365Z,99947.13
2022-12-16T11:10:42.185Z,99931.84
2022-12-16T11:13:34.782Z,99936.47
2022-12-16T11:16:28.046Z,99943.66
2022-12-16T11:19:13.014Z,99945.97
2022-12-16T11:22:12.479Z,99949.66
2022-12-16T11:24:57.653Z,99956.81
2022-12-16T11:27:43.766Z,99962.63
2022-12-16T11:30:37.239Z,99963.72
2022-12-16T11:33:25.650Z,99963.94
2022-12-16T11:36:11.847Z,99967.56
2022-12-16T11:38:59.105Z,99967.72
2022-12-16T11:41:46.389Z,99974.34
2022-12-16T11:44:36.983Z,99975.28
2022-12-16T11:47:29.451Z,99985.31
2022-12-16T11:50:16.458Z,99979.25
2022-12-16T11:53:04.065Z,99983.31
2022-12-16T11:56:06.498Z,99985.66
2022-12-16T11:58:56.298Z,99977.91
2022-12-16T12:01:45.829Z,99994.38
2022-12-16T12:04:32.593Z,99981.03
2022-12-16T12:07:37.449Z,99989.56
2022-12-16T12:10:46.818Z,99988.22
2022-12-16T12:13:46.044Z,99991.81
2022-12-16T12:16:34.834Z,99999.75
2022-12-16T12:19:24.302Z,99999.88
2022-12-16T12:22:11.379Z,100004.38
2022-12-16T12:24:59.311Z,100003.63
2022-12-16T12:27:48.548Z,100008.41
2022-12-16T12:30:35.882Z,100019.16
2022-12-16T12:33:31.049Z,100023.53
2022-12-16T12:36:20.423Z,100018.56
2022-12-16T12:39:13.639Z,100020.50
2022-12-16T12:42:09.575Z,100027.44
2022-12-16T12:45:03.010Z,100024.19
2022-12-16T12:47:49.039Z,100028.03
2022-12-16T12:50:38.318Z,100024.34
2022-12-16T12:53:28.856Z,100034.19
2022-12-16T12:56:22.848Z,100027.47
2022-12-16T12:59:09.621Z,100024.97
2022-12-16T13:01:56.848Z,100034.69
2022-12-16T13:04:42.982Z,100048.94
2022-12-16T13:07:28.268Z,100052.69
2022-12-16T13:10:32.859Z,100057.47
2022-12-16T13:16:18.128Z,100061.94
2022-12-16T13:19:06.606Z,100065.06
2022-12-16T13:22:05.009Z,100077.47
2022-12-16T13:24:57.965Z,100081.19
2022-12-16T13:27:43.687Z,100081.69
2022-12-16T13:30:45.697Z,100081.94
2022-12-16T13:33:42.259Z,100085.16
2022-12-16T13:36:28.259Z,100088.63
2022-12-16T13:39:14.368Z,100090.75
2022-12-16T13:42:09.391Z,100092.09
2022-12-16T13:45:12.761Z,100105.91
2022-12-16T13:48:12.624Z,100103.53
2022-12-16T13:50:59.211Z,100116.66
2022-12-16T13:53:46.354Z,100115.97
2022-12-16T13:56:35.385Z,100123.00
2022-12-16T13:59:23.360Z,100122.16
2022-12-16T14:02:11.268Z,100135.03
2022-12-16T14:04:57.695Z,100148.94
2022-12-16T14:07:45.697Z,100144.91
2022-12-16T14:10:41.978Z,100162.06
2022-12-16T14:13:33.030Z,100165.47
2022-12-16T14:16:20.179Z,100163.63
2022-12-16T14:19:14.517Z,100170.41
2022-12-16T14:22:11.301Z,100178.53
2022-12-16T14:24:57.599Z,100179.50
2022-12-16T14:27:42.977Z,100176.75
2022-12-16T14:30:35.281Z,100186.00
2022-12-16T14:33:33.431Z,100195.13
2022-12-16T14:36:18.493Z,100206.03
2022-12-16T14:39:06.303Z,100206.88
2022-12-16T14:41:52.754Z,100206.69
2022-12-16T14:44:39.061Z,100212.78
2022-12-16T14:47:24.272Z,100213.91
2022-12-16T14:50:24.615Z,100211.41
2022-12-16T14:53:23.959Z,100219.19
2022-12-16T14:56:09.100Z,100226.28
2022-12-16T14:58:54.977Z,100224.72
2022-12-16T15:01:40.875Z,100229.78
2022-12-16T15:04:47.088Z,100229.84
2022-12-16T15:07:35.579Z,100238.53
2022-12-16T15:10:20.977Z,100227.47
2022-12-16T15:13:06.703Z,100238.66
2022-12-16T15:15:55.224Z,100238.16
2022-12-16T15:18:49.470Z,100249.50
2022-12-16T15:21:34.267Z,100258.81
2022-12-16T15:24:19.075Z,100261.66
2022-12-16T15:27:03.763Z,100264.28
2022-12-16T15:29:51.569Z,100258.22
2022-12-16T15:33:05.366Z,100268.50
2022-12-16T15:35:56.525Z,100263.25
2022-12-16T15:38:47.148Z,100276.41
2022-12-16T15:41:39.444Z,100282.56
2022-12-16T15:44:24.348Z,100298.13
2022-12-16T15:47:09.064Z,100287.69
2022-12-16T15:50:02.089Z,100292.00
2022-12-16T15:52:52.404Z,100292.88
2022-12-16T15:55:41.616Z,100303.47
2022-12-16T15:58:30.880Z,100287.00
2022-12-16T16:01:16.767Z,100309.56
2022-12-16T16:04:06.923Z,100315.63
2022-12-16T16:06:53.873Z,100321.88
2022-12-16T16:09:40.196Z,100326.34
2022-12-16T16:12:27.044Z,100331.50
2022-12-16T16:15:11.853Z,100331.50
2022-12-16T16:17:57.152Z,100329.75
2022-12-16T16:20:41.907Z,100334.88
2022-12-16T16:23:29.063Z,100325.41
2022-12-16T16:26:14.406Z,100329.75
2022-12-16T16:28:59.074Z,100339.38
2022-12-16T16:31:43.790Z,100336.59
2022-12-16T16:34:28.802Z,100334.50
2022-12-16T16:37:14.558Z,100343.41
2022-12-16T16:40:01.051Z,100348.69
2022-12-16T16:42:47.965Z,100344.34
2022-12-16T16:45:33.133Z,100345.25
2022-12-16T16:48:21.934Z,100354.03
2022-12-16T16:51:06.555Z,100365.19
2022-12-16T16:53:51.362Z,100365.13
2022-12-16T16:56:37.451Z,100365.47
2022-12-16T16:59:23.356Z,100371.38
2022-12-16T17:02:08.359Z,100362.75
2022-12-16T17:04:53.584Z,100370.38
2022-12-16T17:07:38.478Z,100367.97
2022-12-16T17:10:38.038Z,100382.78
2022-12-16T17:13:24.332Z,100386.94
2022-12-16T17:16:09.332Z,100383.44
2022-12-16T17:18:54.150Z,100387.63
2022-12-16T17:21:38.834Z,100392.94
2022-12-16T17:24:24.039Z,100401.88
2022-12-16T17:27:08.792Z,100414.25
2022-12-16T17:29:54.708Z,100405.44
2022-12-16T17:32:39.624Z,100413.38
2022-12-16T17:35:24.881Z,100422.59
2022-12-16T17:38:09.705Z,100425.34
2022-12-16T17:40:54.529Z,100425.22
2022-12-16T17:43:39.272Z,100424.69
2022-12-16T17:46:28.018Z,100427.16
2022-12-16T17:49:14.104Z,100426.91
2022-12-16T17:52:01.583Z,100431.97
2022-12-16T17:54:46.804Z,100436.53
2022-12-16T17:57:31.495Z,100442.59
2022-12-16T18:00:16.329Z,100437.50
2022-12-16T18:03:02.687Z,100443.59
2022-12-16T18:05:47.525Z,100449.66
2022-12-16T18:08:32.417Z,100453.28
2022-12-16T18:11:17.815Z,100457.69
2022-12-16T18:14:02.525Z,100449.84
2022-12-16T18:16:47.766Z,100451.50
2022-12-16T18:19:34.975Z,100447.94
2022-12-16T18:22:20.353Z,100453.06
2022-12-16T18:25:07.601Z,100465.44
2022-12-16T18:27:53.866Z,100468.22
2022-12-16T18:30:39.194Z,100460.09
2022-12-16T18:33:23.893Z,100467.88
2022-12-16T18:36:10.138Z,100463.56
2022-12-16T18:38:54.787Z,100469.69
2022-12-16T18:41:40.477Z,100469.34
2022-12-16T18:44:28.235Z,100473.88
2022-12-16T18:47:12.809Z,100475.03
2022-12-16T18:49:57.669Z,100487.91
2022-12-16T18:52:44.165Z,100482.91
2022-12-16T18:55:29.506Z,100484.53
2022-12-16T18:58:42.242Z,100482.59
2022-12-16T19:01:19.841Z,100482.59
2022-12-16T19:04:05.065Z,100489.81
2022-12-16T19:06:49.731Z,100480.19
2022-12-16T19:09:35.792Z,100474.59
2022-12-16T19:12:35.108Z,100483.50
2022-12-16T19:15:20.175Z,100491.50
2022-12-16T19:18:05.509Z,100495.78
2022-12-16T19:20:50.150Z,100498.28
2022-12-16T19:23:35.344Z,100506.34
2022-12-16T19:26:22.033Z,100501.19
2022-12-16T19:29:07.145Z,100494.69
2022-12-16T19:31:52.497Z,100493.88
2022-12-16T19:34:41.304Z,100499.06
2022-12-16T19:37:26.276Z,100502.69
2022-12-16T19:40:11.111Z,100508.72
2022-12-16T19:42:57.089Z,100509.91
2022-12-16T19:45:42.081Z,100513.44
2022-12-16T19:48:27.050Z,100514.19
2022-12-16T19:51:29.413Z,100519.50
2022-12-16T19:54:14.334Z,100515.97
2022-12-16T19:56:59.476Z,100517.84
2022-12-16T19:59:45.420Z,100532.47
2022-12-16T20:02:30.809Z,100537.94
2022-12-16T20:05:16.282Z,100546.63
2022-12-16T20:08:00.954Z,100545.75
2022-12-16T20:10:45.745Z,100557.88
2022-12-16T20:13:31.589Z,100558.69
2022-12-16T20:16:20.692Z,100559.59
2022-12-16T20:19:05.322Z,100571.91
2022-12-16T20:21:53.569Z,100571.91
2022-12-16T20:24:41.095Z,100575.50
2022-12-16T20:27:25.779Z,100572.75
2022-12-16T20:30:10.276Z,100575.13
2022-12-16T20:32:56.316Z,100583.13
2022-12-16T20:35:41.367Z,100588.50
2022-12-16T20:38:26.026Z,100588.59
2022-12-16T20:41:14.370Z,100590.03
2022-12-16T20:43:59.178Z,100595.38
2022-12-16T20:46:45.416Z,100599.09
2022-12-16T20:49:31.979Z,100597.25
2022-12-16T20:52:16.637Z,100602.69
2022-12-16T20:55:01.366Z,100602.69
2022-12-16T20:57:57.592Z,100603.50
2022-12-16T21:00:42.271Z,100608.78
2022-12-16T21:03:27.508Z,100608.63
2022-12-16T21:06:13.513Z,100620.91
2022-12-16T21:08:58.303Z,100623.59
2022-12-16T21:11:43.072Z,100617.44
2022-12-16T21:14:27.933Z,100624.38
2022-12-16T21:17:12.690Z,100619.16
2022-12-16T21:19:57.464Z,100629.66
2022-12-16T21:22:43.510Z,100638.31
2022-12-16T21:25:28.313Z,100641.84
2022-12-16T21:28:14.745Z,100639.34
2022-12-16T21:30:59.522Z,100648.72
2022-12-16T21:33:44.745Z,100638.25
2022-12-16T21:36:29.572Z,100650.44
2022-12-16T21:39:15.611Z,100653.25
2022-12-16T21:42:00.262Z,100655.09
2022-12-16T21:44:45.132Z,100662.78
2022-12-16T21:47:30.123Z,100666.47
2022-12-16T21:50:15.148Z,100668.13
2022-12-16T21:53:00.415Z,100669.09
2022-12-16T21:55:46.235Z,100670.81
2022-12-16T21:58:31.424Z,100678.56
2022-12-16T22:01:17.238Z,100679.38
2022-12-16T22:04:02.267Z,100688.16
2022-12-16T22:06:49.074Z,100684.66
2022-12-16T22:09:45.457Z,100691.69
2022-12-16T22:12:32.399Z,100705.75
2022-12-16T22:15:17.020Z,100705.59
2022-12-16T22:18:01.692Z,100696.16
2022-12-16T22:20:46.372Z,100697.84
2022-12-16T22:23:31.142Z,100705.72
2022-12-16T22:26:15.797Z,100703.94
2022-12-16T22:29:01.839Z,100700.53
2022-12-16T22:31:46.598Z,100700.63
2022-12-16T22:34:31.362Z,100699.66
2022-12-16T22:37:16.258Z,100708.38
2022-12-16T22:40:00.966Z,100711.03
2022-12-16T22:42:45.782Z,100711.88
2022-12-16T22:45:32.314Z,100711.94
2022-12-16T22:48:17.019Z,100723.22
2022-12-16T22:51:01.830Z,100729.41
2022-12-16T22:53:46.644Z,100726.00
2022-12-16T22:56:31.913Z,100726.91
2022-12-16T22:59:16.932Z,100726.00
2022-12-16T23:02:03.068Z,100735.47
2022-12-16T23:04:48.135Z,100735.47
2022-12-16T23:07:33.247Z,100732.88
2022-12-16T23:10:17.939Z,100738.94
2022-12-16T23:12:59.244Z,100739.00
2022-12-16T23:15:44.008Z,100737.97
2022-12-16T23:18:30.371Z,100743.06
2022-12-16T23:21:15.355Z,100739.00
2022-12-16T23:24:00.100Z,100743.38
2022-12-16T23:26:44.959Z,100745.13
2022-12-16T23:29:30.153Z,100744.25
2022-12-16T23:32:15.132Z,100738.97
2022-12-16T23:35:01.007Z,100740.78
2022-12-16T23:37:45.708Z,100746.06
2022-12-16T23:40:30.439Z,100747.75
2022-12-16T23:43:15.088Z,100752.13
2022-12-16T23:46:01.334Z,100753.66
2022-12-16T23:48:46.368Z,100759.06
2022-12-16T23:51:32.358Z,100760.78
2022-12-16T23:54:25.653Z,100766.91
2022-12-16T23:57:10.474Z,100771.31
2022-12-16T23:59:55.292Z,100769.72
